Terminal Aerodrome Forecast
Issued by NWS

Home | Current Version | Previous Version | Text Only | Print | Product List | Glossary On
Versions: 1 2 3 4 5 6 7 8 9 10 11 12 13 14 15
000
FTUS46 KLOX 220500
TAFPMD
TAF
KPMD 220522Z 2206/2306 22006KT P6SM FEW150 BKN250
     FM221500 VRB03KT P6SM SCT150 SCT250
     FM221800 24014KT P6SM SCT150 SCT250
     FM222100 24015G25KT P6SM SCT150 SCT250
     FM230000 24018KT P6SM SCT150 SCT250
     FM230300 24012KT P6SM SCT150 SCT250=

USA.gov is the U.S. government's official web portal to all federal, state and local government web resources and services.